sensor_id;sensor_type;location;lat;lon;timestamp;P1;durP1;ratioP1;P2;durP2;ratioP2
39600;SDS011;25297;44.758;11.310;2023-02-28T00:01:11;13.68;;;6.88;;
39600;SDS011;25297;44.758;11.310;2023-02-28T00:03:38;11.25;;;6.50;;
39600;SDS011;25297;44.758;11.310;2023-02-28T00:06:04;14.20;;;6.90;;
39600;SDS011;25297;44.758;11.310;2023-02-28T00:08:31;25.10;;;10.35;;
39600;SDS011;25297;44.758;11.310;2023-02-28T00:11:00;24.50;;;9.85;;
39600;SDS011;25297;44.758;11.310;2023-02-28T00:13:30;12.90;;;7.05;;
39600;SDS011;25297;44.758;11.310;2023-02-28T00:16:04;12.02;;;6.72;;
39600;SDS011;25297;44.758;11.310;2023-02-28T00:18:32;17.35;;;10.90;;
39600;SDS011;25297;44.758;11.310;2023-02-28T00:20:58;11.20;;;7.20;;
39600;SDS011;25297;44.758;11.310;2023-02-28T00:23:24;20.30;;;9.27;;
39600;SDS011;25297;44.758;11.310;2023-02-28T00:25:50;16.98;;;8.85;;
39600;SDS011;25297;44.758;11.310;2023-02-28T00:28:16;18.20;;;9.73;;
39600;SDS011;25297;44.758;11.310;2023-02-28T00:30:42;14.45;;;8.73;;
39600;SDS011;25297;44.758;11.310;2023-02-28T00:33:07;18.08;;;8.73;;
39600;SDS011;25297;44.758;11.310;2023-02-28T00:35:33;32.92;;;17.40;;
39600;SDS011;25297;44.758;11.310;2023-02-28T00:37:59;53.75;;;24.67;;
39600;SDS011;25297;44.758;11.310;2023-02-28T00:40:24;104.18;;;44.92;;
39600;SDS011;25297;44.758;11.310;2023-02-28T00:42:50;107.45;;;46.00;;
39600;SDS011;25297;44.758;11.310;2023-02-28T00:45:16;101.38;;;40.33;;
39600;SDS011;25297;44.758;11.310;2023-02-28T00:47:43;122.20;;;49.85;;
39600;SDS011;25297;44.758;11.310;2023-02-28T00:50:12;94.95;;;47.63;;
39600;SDS011;25297;44.758;11.310;2023-02-28T00:52:38;25.48;;;14.15;;
39600;SDS011;25297;44.758;11.310;2023-02-28T00:55:04;15.85;;;9.70;;
39600;SDS011;25297;44.758;11.310;2023-02-28T00:57:30;11.68;;;6.32;;
39600;SDS011;25297;44.758;11.310;2023-02-28T00:59:56;9.90;;;5.90;;
39600;SDS011;25297;44.758;11.310;2023-02-28T01:02:22;12.05;;;5.43;;
39600;SDS011;25297;44.758;11.310;2023-02-28T01:04:48;13.02;;;5.80;;
39600;SDS011;25297;44.758;11.310;2023-02-28T01:07:14;8.00;;;5.30;;
39600;SDS011;25297;44.758;11.310;2023-02-28T01:09:40;8.70;;;4.97;;
39600;SDS011;25297;44.758;11.310;2023-02-28T01:12:08;11.13;;;5.63;;
39600;SDS011;25297;44.758;11.310;2023-02-28T01:14:34;11.85;;;5.38;;
39600;SDS011;25297;44.758;11.310;2023-02-28T01:17:01;12.13;;;6.05;;
39600;SDS011;25297;44.758;11.310;2023-02-28T01:19:26;8.73;;;5.32;;
39600;SDS011;25297;44.758;11.310;2023-02-28T01:21:52;10.07;;;5.38;;
39600;SDS011;25297;44.758;11.310;2023-02-28T01:24:18;8.90;;;5.50;;
39600;SDS011;25297;44.758;11.310;2023-02-28T01:26:44;9.88;;;5.13;;
39600;SDS011;25297;44.758;11.310;2023-02-28T01:29:10;10.95;;;5.22;;
39600;SDS011;25297;44.758;11.310;2023-02-28T01:31:35;11.52;;;5.78;;
39600;SDS011;25297;44.758;11.310;2023-02-28T01:34:01;12.52;;;5.88;;
39600;SDS011;25297;44.758;11.310;2023-02-28T01:36:27;10.65;;;5.63;;
39600;SDS011;25297;44.758;11.310;2023-02-28T01:38:54;9.95;;;6.00;;
39600;SDS011;25297;44.758;11.310;2023-02-28T01:41:21;9.43;;;5.60;;
39600;SDS011;25297;44.758;11.310;2023-02-28T01:46:18;8.13;;;5.72;;
39600;SDS011;25297;44.758;11.310;2023-02-28T01:48:51;9.77;;;6.03;;
39600;SDS011;25297;44.758;11.310;2023-02-28T01:51:26;8.45;;;5.10;;
39600;SDS011;25297;44.758;11.310;2023-02-28T01:54:00;10.38;;;5.53;;
39600;SDS011;25297;44.758;11.310;2023-02-28T01:56:30;9.98;;;5.85;;
39600;SDS011;25297;44.758;11.310;2023-02-28T01:59:00;9.20;;;5.43;;
39600;SDS011;25297;44.758;11.310;2023-02-28T02:01:26;13.13;;;6.03;;
39600;SDS011;25297;44.758;11.310;2023-02-28T02:03:54;10.65;;;6.22;;
39600;SDS011;25297;44.758;11.310;2023-02-28T02:06:26;11.95;;;6.03;;
39600;SDS011;25297;44.758;11.310;2023-02-28T02:08:54;9.57;;;6.13;;
39600;SDS011;25297;44.758;11.310;2023-02-28T02:11:21;9.32;;;5.75;;
39600;SDS011;25297;44.758;11.310;2023-02-28T02:16:44;10.18;;;5.57;;
39600;SDS011;25297;44.758;11.310;2023-02-28T02:35:54;12.05;;;6.45;;
39600;SDS011;25297;44.758;11.310;2023-02-28T02:41:19;13.30;;;6.70;;
39600;SDS011;25297;44.758;11.310;2023-02-28T02:46:43;10.43;;;6.85;;
39600;SDS011;25297;44.758;11.310;2023-02-28T02:51:57;9.40;;;6.57;;
39600;SDS011;25297;44.758;11.310;2023-02-28T02:54:29;9.57;;;6.35;;
39600;SDS011;25297;44.758;11.310;2023-02-28T02:56:59;11.10;;;6.70;;
39600;SDS011;25297;44.758;11.310;2023-02-28T02:59:29;10.38;;;6.05;;
39600;SDS011;25297;44.758;11.310;2023-02-28T03:01:58;11.77;;;6.35;;
39600;SDS011;25297;44.758;11.310;2023-02-28T03:04:28;11.07;;;6.65;;
39600;SDS011;25297;44.758;11.310;2023-02-28T03:07:00;10.23;;;6.43;;
39600;SDS011;25297;44.758;11.310;2023-02-28T03:09:26;12.48;;;7.85;;
39600;SDS011;25297;44.758;11.310;2023-02-28T03:11:52;11.15;;;7.00;;
39600;SDS011;25297;44.758;11.310;2023-02-28T03:20:12;11.55;;;7.10;;
39600;SDS011;25297;44.758;11.310;2023-02-28T03:30:22;15.57;;;7.20;;
39600;SDS011;25297;44.758;11.310;2023-02-28T03:32:59;15.93;;;8.05;;
39600;SDS011;25297;44.758;11.310;2023-02-28T03:35:34;11.02;;;6.93;;
39600;SDS011;25297;44.758;11.310;2023-02-28T03:38:09;14.20;;;6.95;;
39600;SDS011;25297;44.758;11.310;2023-02-28T03:40:46;15.75;;;7.32;;
39600;SDS011;25297;44.758;11.310;2023-02-28T03:43:22;10.93;;;6.85;;
39600;SDS011;25297;44.758;11.310;2023-02-28T03:45:52;13.07;;;7.07;;
39600;SDS011;25297;44.758;11.310;2023-02-28T03:48:38;12.02;;;7.55;;
39600;SDS011;25297;44.758;11.310;2023-02-28T03:51:44;11.55;;;7.15;;
39600;SDS011;25297;44.758;11.310;2023-02-28T03:54:33;12.05;;;7.10;;
39600;SDS011;25297;44.758;11.310;2023-02-28T03:57:02;10.65;;;6.85;;
39600;SDS011;25297;44.758;11.310;2023-02-28T03:59:48;11.25;;;7.03;;
39600;SDS011;25297;44.758;11.310;2023-02-28T04:02:22;13.02;;;7.18;;
39600;SDS011;25297;44.758;11.310;2023-02-28T04:04:49;12.40;;;7.47;;
39600;SDS011;25297;44.758;11.310;2023-02-28T04:13:22;12.82;;;6.70;;
39600;SDS011;25297;44.758;11.310;2023-02-28T04:15:48;15.55;;;7.95;;
39600;SDS011;25297;44.758;11.310;2023-02-28T04:18:14;14.45;;;7.68;;
39600;SDS011;25297;44.758;11.310;2023-02-28T04:20:39;13.23;;;7.60;;
39600;SDS011;25297;44.758;11.310;2023-02-28T04:23:05;12.85;;;7.70;;
39600;SDS011;25297;44.758;11.310;2023-02-28T04:25:30;11.52;;;7.80;;
39600;SDS011;25297;44.758;11.310;2023-02-28T04:27:56;11.65;;;7.45;;
39600;SDS011;25297;44.758;11.310;2023-02-28T04:30:22;12.98;;;7.28;;
39600;SDS011;25297;44.758;11.310;2023-02-28T04:32:47;11.77;;;7.55;;
39600;SDS011;25297;44.758;11.310;2023-02-28T04:35:13;15.85;;;7.35;;
39600;SDS011;25297;44.758;11.310;2023-02-28T04:37:39;11.02;;;7.63;;
39600;SDS011;25297;44.758;11.310;2023-02-28T04:40:04;12.80;;;7.53;;
39600;SDS011;25297;44.758;11.310;2023-02-28T04:42:30;11.48;;;7.25;;
39600;SDS011;25297;44.758;11.310;2023-02-28T04:45:00;17.13;;;8.10;;
39600;SDS011;25297;44.758;11.310;2023-02-28T04:47:27;14.95;;;7.68;;
39600;SDS011;25297;44.758;11.310;2023-02-28T04:49:52;13.40;;;9.13;;
39600;SDS011;25297;44.758;11.310;2023-02-28T04:52:18;12.40;;;6.70;;
39600;SDS011;25297;44.758;11.310;2023-02-28T04:54:44;12.48;;;7.93;;
39600;SDS011;25297;44.758;11.310;2023-02-28T04:57:10;13.93;;;8.15;;
39600;SDS011;25297;44.758;11.310;2023-02-28T04:59:35;12.20;;;7.85;;
39600;SDS011;25297;44.758;11.310;2023-02-28T05:02:01;14.50;;;7.43;;
39600;SDS011;25297;44.758;11.310;2023-02-28T05:04:31;12.68;;;8.30;;
39600;SDS011;25297;44.758;11.310;2023-02-28T05:06:59;13.38;;;7.75;;
39600;SDS011;25297;44.758;11.310;2023-02-28T05:09:25;11.68;;;7.55;;
39600;SDS011;25297;44.758;11.310;2023-02-28T05:11:51;11.13;;;7.97;;
39600;SDS011;25297;44.758;11.310;2023-02-28T05:14:16;13.07;;;7.80;;
39600;SDS011;25297;44.758;11.310;2023-02-28T05:16:42;12.43;;;7.70;;
39600;SDS011;25297;44.758;11.310;2023-02-28T05:19:08;13.88;;;7.88;;
39600;SDS011;25297;44.758;11.310;2023-02-28T05:21:37;12.95;;;7.68;;
39600;SDS011;25297;44.758;11.310;2023-02-28T05:24:13;12.77;;;7.85;;
39600;SDS011;25297;44.758;11.310;2023-02-28T05:26:40;10.10;;;7.35;;
39600;SDS011;25297;44.758;11.310;2023-02-28T05:29:07;13.07;;;7.65;;
39600;SDS011;25297;44.758;11.310;2023-02-28T05:31:34;17.17;;;8.70;;
39600;SDS011;25297;44.758;11.310;2023-02-28T05:34:00;14.77;;;8.40;;
39600;SDS011;25297;44.758;11.310;2023-02-28T05:36:26;13.40;;;8.27;;
39600;SDS011;25297;44.758;11.310;2023-02-28T05:38:51;11.25;;;7.88;;
39600;SDS011;25297;44.758;11.310;2023-02-28T05:41:18;11.32;;;7.95;;
39600;SDS011;25297;44.758;11.310;2023-02-28T05:43:45;14.05;;;8.13;;
39600;SDS011;25297;44.758;11.310;2023-02-28T05:46:11;12.30;;;8.13;;
39600;SDS011;25297;44.758;11.310;2023-02-28T05:48:38;13.15;;;7.53;;
39600;SDS011;25297;44.758;11.310;2023-02-28T05:51:05;14.32;;;7.78;;
39600;SDS011;25297;44.758;11.310;2023-02-28T05:53:31;13.45;;;8.20;;
39600;SDS011;25297;44.758;11.310;2023-02-28T05:55:57;14.75;;;9.05;;
39600;SDS011;25297;44.758;11.310;2023-02-28T05:58:23;14.13;;;8.10;;
39600;SDS011;25297;44.758;11.310;2023-02-28T06:00:55;15.13;;;9.20;;
39600;SDS011;25297;44.758;11.310;2023-02-28T06:03:25;14.32;;;9.60;;
39600;SDS011;25297;44.758;11.310;2023-02-28T06:05:51;12.70;;;7.93;;
39600;SDS011;25297;44.758;11.310;2023-02-28T06:08:17;12.55;;;8.05;;
39600;SDS011;25297;44.758;11.310;2023-02-28T06:10:43;13.60;;;8.23;;
39600;SDS011;25297;44.758;11.310;2023-02-28T06:13:09;13.45;;;8.48;;
39600;SDS011;25297;44.758;11.310;2023-02-28T06:15:37;12.52;;;7.97;;
39600;SDS011;25297;44.758;11.310;2023-02-28T06:18:03;11.27;;;7.65;;
39600;SDS011;25297;44.758;11.310;2023-02-28T06:20:29;11.82;;;7.85;;
39600;SDS011;25297;44.758;11.310;2023-02-28T06:22:55;14.48;;;8.20;;
39600;SDS011;25297;44.758;11.310;2023-02-28T06:25:23;14.07;;;8.38;;
39600;SDS011;25297;44.758;11.310;2023-02-28T06:27:52;12.38;;;8.10;;
39600;SDS011;25297;44.758;11.310;2023-02-28T06:30:18;11.98;;;7.65;;
39600;SDS011;25297;44.758;11.310;2023-02-28T06:32:48;13.15;;;7.55;;
39600;SDS011;25297;44.758;11.310;2023-02-28T06:35:14;12.48;;;7.97;;
39600;SDS011;25297;44.758;11.310;2023-02-28T06:37:40;13.45;;;8.45;;
39600;SDS011;25297;44.758;11.310;2023-02-28T06:40:07;11.80;;;7.47;;
39600;SDS011;25297;44.758;11.310;2023-02-28T06:42:34;15.02;;;7.82;;
39600;SDS011;25297;44.758;11.310;2023-02-28T06:45:00;12.82;;;8.13;;
39600;SDS011;25297;44.758;11.310;2023-02-28T06:47:28;15.02;;;8.30;;
39600;SDS011;25297;44.758;11.310;2023-02-28T06:49:55;13.15;;;7.93;;
39600;SDS011;25297;44.758;11.310;2023-02-28T06:52:21;15.65;;;8.43;;
39600;SDS011;25297;44.758;11.310;2023-02-28T06:54:47;13.82;;;7.78;;
39600;SDS011;25297;44.758;11.310;2023-02-28T06:57:28;11.32;;;8.07;;
39600;SDS011;25297;44.758;11.310;2023-02-28T06:59:56;11.95;;;8.00;;
39600;SDS011;25297;44.758;11.310;2023-02-28T07:02:23;13.25;;;8.15;;
39600;SDS011;25297;44.758;11.310;2023-02-28T07:04:49;15.98;;;9.07;;
39600;SDS011;25297;44.758;11.310;2023-02-28T07:07:15;14.63;;;8.23;;
39600;SDS011;25297;44.758;11.310;2023-02-28T07:09:40;11.48;;;7.63;;
39600;SDS011;25297;44.758;11.310;2023-02-28T07:12:06;13.93;;;8.48;;
39600;SDS011;25297;44.758;11.310;2023-02-28T07:14:32;14.65;;;8.35;;
39600;SDS011;25297;44.758;11.310;2023-02-28T07:16:57;13.13;;;8.48;;
39600;SDS011;25297;44.758;11.310;2023-02-28T07:19:24;15.55;;;8.65;;
39600;SDS011;25297;44.758;11.310;2023-02-28T07:21:50;12.45;;;7.70;;
39600;SDS011;25297;44.758;11.310;2023-02-28T07:24:15;12.68;;;8.23;;
39600;SDS011;25297;44.758;11.310;2023-02-28T07:26:42;12.05;;;7.82;;
39600;SDS011;25297;44.758;11.310;2023-02-28T07:29:08;11.05;;;7.65;;
39600;SDS011;25297;44.758;11.310;2023-02-28T07:31:34;16.50;;;8.90;;
39600;SDS011;25297;44.758;11.310;2023-02-28T07:33:59;13.32;;;8.82;;
39600;SDS011;25297;44.758;11.310;2023-02-28T07:36:25;13.63;;;7.85;;
39600;SDS011;25297;44.758;11.310;2023-02-28T07:38:51;11.73;;;7.70;;
39600;SDS011;25297;44.758;11.310;2023-02-28T07:41:17;14.52;;;7.97;;
39600;SDS011;25297;44.758;11.310;2023-02-28T07:43:45;14.40;;;7.63;;
39600;SDS011;25297;44.758;11.310;2023-02-28T07:46:12;13.75;;;8.35;;
39600;SDS011;25297;44.758;11.310;2023-02-28T07:48:42;12.13;;;7.55;;
39600;SDS011;25297;44.758;11.310;2023-02-28T07:51:08;12.57;;;7.35;;
39600;SDS011;25297;44.758;11.310;2023-02-28T07:53:34;14.13;;;7.93;;
39600;SDS011;25297;44.758;11.310;2023-02-28T07:56:00;14.07;;;8.10;;
39600;SDS011;25297;44.758;11.310;2023-02-28T07:58:27;12.57;;;7.93;;
39600;SDS011;25297;44.758;11.310;2023-02-28T08:00:54;13.13;;;8.38;;
39600;SDS011;25297;44.758;11.310;2023-02-28T08:03:21;13.68;;;8.05;;
39600;SDS011;25297;44.758;11.310;2023-02-28T08:05:48;68.32;;;12.70;;
39600;SDS011;25297;44.758;11.310;2023-02-28T08:08:14;23.83;;;8.95;;
39600;SDS011;25297;44.758;11.310;2023-02-28T08:10:40;14.45;;;8.05;;
39600;SDS011;25297;44.758;11.310;2023-02-28T08:13:06;13.02;;;8.85;;
39600;SDS011;25297;44.758;11.310;2023-02-28T08:15:32;12.63;;;8.02;;
39600;SDS011;25297;44.758;11.310;2023-02-28T08:17:58;17.33;;;8.90;;
39600;SDS011;25297;44.758;11.310;2023-02-28T08:20:24;16.83;;;8.43;;
39600;SDS011;25297;44.758;11.310;2023-02-28T08:22:50;14.90;;;8.73;;
39600;SDS011;25297;44.758;11.310;2023-02-28T08:25:17;18.92;;;9.18;;
39600;SDS011;25297;44.758;11.310;2023-02-28T08:27:43;11.05;;;8.18;;
39600;SDS011;25297;44.758;11.310;2023-02-28T08:30:12;11.95;;;8.10;;
39600;SDS011;25297;44.758;11.310;2023-02-28T08:32:39;15.25;;;8.05;;
39600;SDS011;25297;44.758;11.310;2023-02-28T08:35:05;13.65;;;8.75;;
39600;SDS011;25297;44.758;11.310;2023-02-28T08:37:31;15.02;;;8.70;;
39600;SDS011;25297;44.758;11.310;2023-02-28T08:39:57;14.43;;;8.30;;
39600;SDS011;25297;44.758;11.310;2023-02-28T08:42:23;14.25;;;8.35;;
39600;SDS011;25297;44.758;11.310;2023-02-28T08:44:49;17.05;;;12.65;;
39600;SDS011;25297;44.758;11.310;2023-02-28T08:47:15;56.15;;;38.35;;
39600;SDS011;25297;44.758;11.310;2023-02-28T08:49:40;55.15;;;38.22;;
39600;SDS011;25297;44.758;11.310;2023-02-28T08:52:06;64.60;;;43.70;;
39600;SDS011;25297;44.758;11.310;2023-02-28T08:54:32;22.67;;;15.35;;
39600;SDS011;25297;44.758;11.310;2023-02-28T08:56:59;16.25;;;10.80;;
39600;SDS011;25297;44.758;11.310;2023-02-28T08:59:24;14.10;;;8.77;;
39600;SDS011;25297;44.758;11.310;2023-02-28T09:01:50;15.75;;;11.77;;
39600;SDS011;25297;44.758;11.310;2023-02-28T09:04:16;18.02;;;11.18;;
39600;SDS011;25297;44.758;11.310;2023-02-28T09:06:41;29.15;;;19.25;;
39600;SDS011;25297;44.758;11.310;2023-02-28T09:09:07;23.17;;;16.60;;
39600;SDS011;25297;44.758;11.310;2023-02-28T09:11:34;19.83;;;15.15;;
39600;SDS011;25297;44.758;11.310;2023-02-28T09:14:01;16.92;;;10.40;;
39600;SDS011;25297;44.758;11.310;2023-02-28T09:16:28;26.05;;;17.25;;
39600;SDS011;25297;44.758;11.310;2023-02-28T09:18:55;23.50;;;15.38;;
39600;SDS011;25297;44.758;11.310;2023-02-28T09:21:21;18.35;;;13.00;;
39600;SDS011;25297;44.758;11.310;2023-02-28T09:23:48;20.42;;;13.25;;
39600;SDS011;25297;44.758;11.310;2023-02-28T09:26:33;25.80;;;15.43;;
39600;SDS011;25297;44.758;11.310;2023-02-28T09:28:59;20.02;;;12.82;;
39600;SDS011;25297;44.758;11.310;2023-02-28T09:31:26;21.02;;;13.95;;
39600;SDS011;25297;44.758;11.310;2023-02-28T09:33:54;28.00;;;19.27;;
39600;SDS011;25297;44.758;11.310;2023-02-28T09:36:21;40.40;;;29.95;;
39600;SDS011;25297;44.758;11.310;2023-02-28T09:38:48;26.15;;;20.10;;
39600;SDS011;25297;44.758;11.310;2023-02-28T09:41:25;63.72;;;18.92;;
39600;SDS011;25297;44.758;11.310;2023-02-28T09:43:57;21.65;;;17.02;;
39600;SDS011;25297;44.758;11.310;2023-02-28T09:46:30;33.40;;;27.73;;
39600;SDS011;25297;44.758;11.310;2023-02-28T09:48:57;25.23;;;18.88;;
39600;SDS011;25297;44.758;11.310;2023-02-28T09:51:33;18.42;;;12.00;;
39600;SDS011;25297;44.758;11.310;2023-02-28T09:54:00;18.38;;;13.82;;
39600;SDS011;25297;44.758;11.310;2023-02-28T09:57:14;23.30;;;15.48;;
39600;SDS011;25297;44.758;11.310;2023-02-28T10:02:02;19.80;;;10.45;;
39600;SDS011;25297;44.758;11.310;2023-02-28T10:04:54;23.65;;;16.30;;
39600;SDS011;25297;44.758;11.310;2023-02-28T10:10:16;16.35;;;11.75;;
39600;SDS011;25297;44.758;11.310;2023-02-28T10:13:56;16.50;;;11.63;;
39600;SDS011;25297;44.758;11.310;2023-02-28T10:24:44;14.30;;;8.80;;
39600;SDS011;25297;44.758;11.310;2023-02-28T10:27:14;15.35;;;9.73;;
39600;SDS011;25297;44.758;11.310;2023-02-28T10:29:44;18.30;;;10.13;;
39600;SDS011;25297;44.758;11.310;2023-02-28T10:32:15;18.45;;;11.05;;
39600;SDS011;25297;44.758;11.310;2023-02-28T10:34:42;14.27;;;9.43;;
39600;SDS011;25297;44.758;11.310;2023-02-28T10:37:09;16.63;;;9.32;;
39600;SDS011;25297;44.758;11.310;2023-02-28T10:39:37;13.82;;;9.27;;
39600;SDS011;25297;44.758;11.310;2023-02-28T10:42:18;19.80;;;10.70;;
39600;SDS011;25297;44.758;11.310;2023-02-28T10:45:12;17.67;;;12.80;;
39600;SDS011;25297;44.758;11.310;2023-02-28T10:48:03;17.27;;;10.40;;
39600;SDS011;25297;44.758;11.310;2023-02-28T10:55:59;18.23;;;9.38;;
39600;SDS011;25297;44.758;11.310;2023-02-28T10:58:28;16.48;;;11.65;;
39600;SDS011;25297;44.758;11.310;2023-02-28T11:00:54;13.77;;;10.52;;
39600;SDS011;25297;44.758;11.310;2023-02-28T11:03:31;16.77;;;9.43;;
39600;SDS011;25297;44.758;11.310;2023-02-28T11:05:58;18.02;;;11.48;;
39600;SDS011;25297;44.758;11.310;2023-02-28T11:08:28;25.65;;;15.30;;
39600;SDS011;25297;44.758;11.310;2023-02-28T11:10:55;16.92;;;10.68;;
39600;SDS011;25297;44.758;11.310;2023-02-28T11:13:33;15.93;;;9.68;;
39600;SDS011;25297;44.758;11.310;2023-02-28T11:16:03;52.83;;;33.38;;
39600;SDS011;25297;44.758;11.310;2023-02-28T11:21:09;17.88;;;11.23;;
39600;SDS011;25297;44.758;11.310;2023-02-28T11:23:42;15.80;;;11.65;;
39600;SDS011;25297;44.758;11.310;2023-02-28T11:26:08;20.00;;;11.68;;
39600;SDS011;25297;44.758;11.310;2023-02-28T11:28:38;19.35;;;15.48;;
39600;SDS011;25297;44.758;11.310;2023-02-28T11:36:21;27.38;;;21.55;;
39600;SDS011;25297;44.758;11.310;2023-02-28T11:38:49;13.02;;;9.32;;
39600;SDS011;25297;44.758;11.310;2023-02-28T11:41:53;26.40;;;15.93;;
39600;SDS011;25297;44.758;11.310;2023-02-28T11:47:15;33.53;;;28.10;;
39600;SDS011;25297;44.758;11.310;2023-02-28T11:55:36;16.95;;;13.63;;
39600;SDS011;25297;44.758;11.310;2023-02-28T12:01:16;17.85;;;14.55;;
39600;SDS011;25297;44.758;11.310;2023-02-28T12:06:43;22.80;;;16.52;;
39600;SDS011;25297;44.758;11.310;2023-02-28T12:14:33;19.65;;;12.75;;
39600;SDS011;25297;44.758;11.310;2023-02-28T12:22:17;14.73;;;8.25;;
39600;SDS011;25297;44.758;11.310;2023-02-28T12:27:21;11.98;;;8.93;;
39600;SDS011;25297;44.758;11.310;2023-02-28T12:29:51;12.23;;;8.77;;
39600;SDS011;25297;44.758;11.310;2023-02-28T12:32:27;15.07;;;8.80;;
39600;SDS011;25297;44.758;11.310;2023-02-28T12:35:19;13.60;;;10.18;;
39600;SDS011;25297;44.758;11.310;2023-02-28T12:37:51;18.10;;;10.52;;
39600;SDS011;25297;44.758;11.310;2023-02-28T12:40:26;13.90;;;8.88;;
39600;SDS011;25297;44.758;11.310;2023-02-28T12:42:59;13.25;;;8.07;;
39600;SDS011;25297;44.758;11.310;2023-02-28T12:48:18;18.85;;;10.32;;
39600;SDS011;25297;44.758;11.310;2023-02-28T12:51:07;12.88;;;8.38;;
39600;SDS011;25297;44.758;11.310;2023-02-28T12:59:09;14.55;;;9.00;;
39600;SDS011;25297;44.758;11.310;2023-02-28T13:02:02;14.27;;;9.07;;
39600;SDS011;25297;44.758;11.310;2023-02-28T13:04:43;17.20;;;9.15;;
39600;SDS011;25297;44.758;11.310;2023-02-28T13:10:14;16.30;;;8.75;;
39600;SDS011;25297;44.758;11.310;2023-02-28T13:12:50;11.80;;;8.52;;
39600;SDS011;25297;44.758;11.310;2023-02-28T13:15:18;22.67;;;10.80;;
39600;SDS011;25297;44.758;11.310;2023-02-28T13:17:53;17.25;;;9.98;;
39600;SDS011;25297;44.758;11.310;2023-02-28T13:20:26;15.05;;;7.80;;
39600;SDS011;25297;44.758;11.310;2023-02-28T13:22:56;14.55;;;9.32;;
39600;SDS011;25297;44.758;11.310;2023-02-28T13:28:13;16.23;;;11.43;;
39600;SDS011;25297;44.758;11.310;2023-02-28T13:31:01;15.95;;;10.40;;
39600;SDS011;25297;44.758;11.310;2023-02-28T13:33:36;12.75;;;7.57;;
39600;SDS011;25297;44.758;11.310;2023-02-28T13:36:31;13.95;;;8.85;;
39600;SDS011;25297;44.758;11.310;2023-02-28T13:38:58;21.85;;;11.45;;
39600;SDS011;25297;44.758;11.310;2023-02-28T13:41:47;14.93;;;8.20;;
39600;SDS011;25297;44.758;11.310;2023-02-28T13:44:20;13.60;;;7.50;;
39600;SDS011;25297;44.758;11.310;2023-02-28T13:49:25;17.55;;;10.13;;
39600;SDS011;25297;44.758;11.310;2023-02-28T13:57:22;17.88;;;9.77;;
39600;SDS011;25297;44.758;11.310;2023-02-28T14:05:47;11.70;;;7.00;;
39600;SDS011;25297;44.758;11.310;2023-02-28T14:09:06;13.45;;;7.53;;
39600;SDS011;25297;44.758;11.310;2023-02-28T14:11:30;14.77;;;8.82;;
39600;SDS011;25297;44.758;11.310;2023-02-28T14:13:56;17.02;;;9.88;;
39600;SDS011;25297;44.758;11.310;2023-02-28T14:16:23;15.75;;;8.82;;
39600;SDS011;25297;44.758;11.310;2023-02-28T14:19:00;15.00;;;8.55;;
39600;SDS011;25297;44.758;11.310;2023-02-28T14:21:33;11.25;;;7.47;;
39600;SDS011;25297;44.758;11.310;2023-02-28T14:35:03;12.73;;;7.72;;
39600;SDS011;25297;44.758;11.310;2023-02-28T14:37:33;18.33;;;7.43;;
39600;SDS011;25297;44.758;11.310;2023-02-28T14:40:02;11.20;;;7.07;;
39600;SDS011;25297;44.758;11.310;2023-02-28T14:42:33;10.55;;;7.57;;
39600;SDS011;25297;44.758;11.310;2023-02-28T14:45:00;10.95;;;6.00;;
39600;SDS011;25297;44.758;11.310;2023-02-28T14:47:33;37.45;;;21.08;;
39600;SDS011;25297;44.758;11.310;2023-02-28T14:50:01;12.57;;;6.18;;
39600;SDS011;25297;44.758;11.310;2023-02-28T14:52:29;10.75;;;5.22;;
39600;SDS011;25297;44.758;11.310;2023-02-28T14:54:58;17.63;;;8.73;;
39600;SDS011;25297;44.758;11.310;2023-02-28T15:02:37;14.82;;;8.95;;
39600;SDS011;25297;44.758;11.310;2023-02-28T15:07:35;13.68;;;9.85;;
39600;SDS011;25297;44.758;11.310;2023-02-28T15:12:45;13.27;;;5.95;;
39600;SDS011;25297;44.758;11.310;2023-02-28T15:15:39;12.00;;;6.05;;
39600;SDS011;25297;44.758;11.310;2023-02-28T15:18:16;14.18;;;7.35;;
39600;SDS011;25297;44.758;11.310;2023-02-28T15:21:02;11.32;;;5.97;;
39600;SDS011;25297;44.758;11.310;2023-02-28T15:23:35;12.52;;;7.95;;
39600;SDS011;25297;44.758;11.310;2023-02-28T15:26:02;15.27;;;10.80;;
39600;SDS011;25297;44.758;11.310;2023-02-28T15:28:29;10.68;;;7.20;;
39600;SDS011;25297;44.758;11.310;2023-02-28T15:30:59;12.98;;;7.63;;
39600;SDS011;25297;44.758;11.310;2023-02-28T15:33:27;15.48;;;7.13;;
39600;SDS011;25297;44.758;11.310;2023-02-28T15:36:05;11.35;;;5.90;;
39600;SDS011;25297;44.758;11.310;2023-02-28T15:38:46;11.50;;;5.38;;
39600;SDS011;25297;44.758;11.310;2023-02-28T15:41:26;13.82;;;9.10;;
39600;SDS011;25297;44.758;11.310;2023-02-28T15:47:00;10.15;;;7.40;;
39600;SDS011;25297;44.758;11.310;2023-02-28T15:49:51;11.52;;;6.28;;
39600;SDS011;25297;44.758;11.310;2023-02-28T15:52:42;15.70;;;6.82;;
39600;SDS011;25297;44.758;11.310;2023-02-28T15:55:10;14.75;;;7.18;;
39600;SDS011;25297;44.758;11.310;2023-02-28T15:57:50;12.50;;;6.97;;
39600;SDS011;25297;44.758;11.310;2023-02-28T16:00:19;14.63;;;8.50;;
39600;SDS011;25297;44.758;11.310;2023-02-28T16:02:47;25.95;;;13.27;;
39600;SDS011;25297;44.758;11.310;2023-02-28T16:05:18;19.98;;;12.88;;
39600;SDS011;25297;44.758;11.310;2023-02-28T16:07:53;16.73;;;11.50;;
39600;SDS011;25297;44.758;11.310;2023-02-28T16:10:20;12.40;;;6.68;;
39600;SDS011;25297;44.758;11.310;2023-02-28T16:12:50;16.48;;;9.30;;
39600;SDS011;25297;44.758;11.310;2023-02-28T16:15:21;11.50;;;6.95;;
39600;SDS011;25297;44.758;11.310;2023-02-28T16:17:53;13.68;;;6.20;;
39600;SDS011;25297;44.758;11.310;2023-02-28T16:20:21;13.35;;;5.78;;
39600;SDS011;25297;44.758;11.310;2023-02-28T16:22:51;17.70;;;10.07;;
39600;SDS011;25297;44.758;11.310;2023-02-28T16:25:22;15.88;;;8.73;;
39600;SDS011;25297;44.758;11.310;2023-02-28T16:27:52;13.57;;;7.85;;
39600;SDS011;25297;44.758;11.310;2023-02-28T16:30:20;14.48;;;6.47;;
39600;SDS011;25297;44.758;11.310;2023-02-28T16:32:47;13.65;;;6.22;;
39600;SDS011;25297;44.758;11.310;2023-02-28T16:35:14;13.18;;;6.47;;
39600;SDS011;25297;44.758;11.310;2023-02-28T16:37:40;11.45;;;6.45;;
39600;SDS011;25297;44.758;11.310;2023-02-28T16:40:06;13.48;;;5.53;;
39600;SDS011;25297;44.758;11.310;2023-02-28T16:42:42;17.55;;;8.63;;
39600;SDS011;25297;44.758;11.310;2023-02-28T16:45:17;13.05;;;6.30;;
39600;SDS011;25297;44.758;11.310;2023-02-28T16:47:46;11.32;;;5.93;;
39600;SDS011;25297;44.758;11.310;2023-02-28T16:50:13;12.52;;;5.10;;
39600;SDS011;25297;44.758;11.310;2023-02-28T16:52:42;12.47;;;5.67;;
39600;SDS011;25297;44.758;11.310;2023-02-28T16:55:09;11.73;;;5.35;;
39600;SDS011;25297;44.758;11.310;2023-02-28T16:57:35;10.05;;;4.95;;
39600;SDS011;25297;44.758;11.310;2023-02-28T17:00:01;9.70;;;5.57;;
39600;SDS011;25297;44.758;11.310;2023-02-28T17:02:28;11.05;;;6.28;;
39600;SDS011;25297;44.758;11.310;2023-02-28T17:04:53;10.07;;;6.75;;
39600;SDS011;25297;44.758;11.310;2023-02-28T17:07:19;14.70;;;7.30;;
39600;SDS011;25297;44.758;11.310;2023-02-28T17:09:44;15.63;;;8.18;;
39600;SDS011;25297;44.758;11.310;2023-02-28T17:12:10;10.95;;;6.07;;